Time;durP1;ratioP1;P1;durP2;ratioP2;P2;SDS_P1;SDS_P2;PMS_P1;PMS_P2;Temp;Humidity;BMP_temperature;BMP_pressure;BME280_temperature;BME280_humidity;BME280_pressure;Samples;Min_cycle;Max_cycle;Signal;HPM_P1;HPM_P2
2023/03/28 00:01:40;;;;;;;8.07;2.15;;;;;;;1.53;100.00;102335.28;10358542;28;20034;-78
2023/03/28 00:06:44;;;;;;;13.88;2.10;;;;;;;1.60;100.00;102352.66;10339319;28;20038;-79
2023/03/28 00:11:45;;;;;;;12.18;1.88;;;;;;;1.72;100.00;102383.13;10376866;28;20120;-78
2023/03/28 00:16:46;;;;;;;9.00;2.20;;;;;;;1.68;100.00;102365.44;10334768;28;20039;-78
2023/03/28 00:21:48;;;;;;;10.93;1.90;;;;;;;1.57;100.00;102353.84;10350423;28;20046;-79
2023/03/28 00:26:53;;;;;;;10.93;2.80;;;;;;;1.39;100.00;102353.03;10317611;28;20042;-78
2023/03/28 00:31:53;;;;;;;14.80;2.17;;;;;;;1.34;100.00;102348.03;10373672;28;20045;-79
2023/03/28 00:36:54;;;;;;;13.38;1.88;;;;;;;1.07;100.00;102302.88;10339469;28;20038;-78
2023/03/28 00:41:55;;;;;;;13.77;2.72;;;;;;;1.46;100.00;102367.66;10341911;28;20490;-78
2023/03/28 00:46:55;;;;;;;13.95;1.95;;;;;;;1.35;100.00;102366.03;10356931;28;20379;-77
2023/03/28 00:51:56;;;;;;;12.20;1.95;;;;;;;1.31;100.00;102366.53;10373419;28;20056;-79
2023/03/28 00:56:58;;;;;;;14.43;2.97;;;;;;;1.20;100.00;102356.75;10361725;28;20057;-79
2023/03/28 01:01:58;;;;;;;8.32;1.70;;;;;;;1.18;100.00;102369.63;10371058;28;20095;-79
2023/03/28 01:06:59;;;;;;;16.60;4.15;;;;;;;1.09;100.00;102360.53;10338783;28;20092;-79
2023/03/28 01:11:59;;;;;;;13.90;2.10;;;;;;;1.02;100.00;102364.06;10357811;28;20096;-77
2023/03/28 01:17:00;;;;;;;14.95;2.42;;;;;;;1.04;100.00;102372.88;10340982;28;20042;-70
2023/03/28 01:22:25;;;;;;;9.25;1.65;;;;;;;1.04;100.00;102367.47;10370871;28;20042;-80
2023/03/28 01:27:28;;;;;;;15.75;2.85;;;;;;;1.05;100.00;102375.41;10395769;28;20089;-80
2023/03/28 01:32:47;;;;;;;8.07;1.58;;;;;;;1.07;100.00;102367.97;10379882;28;20053;-80
2023/03/28 01:37:47;;;;;;;9.35;2.38;;;;;;;1.09;100.00;102367.84;10414926;28;20041;-80
2023/03/28 01:43:15;;;;;;;13.90;3.33;;;;;;;1.02;100.00;102366.75;10413094;28;20025;-81
2023/03/28 01:48:22;;;;;;;11.70;1.70;;;;;;;0.85;100.00;102365.72;10395239;28;20064;-81
2023/03/28 01:53:33;;;;;;;13.90;2.00;;;;;;;0.72;100.00;102369.66;10396069;28;20045;-80
2023/03/28 01:58:39;;;;;;;10.68;2.10;;;;;;;0.67;100.00;102376.56;10379381;28;20080;-82
2023/03/28 02:03:42;;;;;;;12.32;1.80;;;;;;;0.64;100.00;102371.44;10340657;28;20062;-82
2023/03/28 02:08:43;;;;;;;16.20;2.53;;;;;;;0.63;100.00;102364.31;10363126;28;20030;-81
2023/03/28 02:13:53;;;;;;;13.90;2.17;;;;;;;0.60;100.00;102366.31;10314901;28;20418;-81
2023/03/28 02:18:55;;;;;;;11.63;3.28;;;;;;;0.71;100.00;102356.28;10331368;28;20074;-81
2023/03/28 02:23:55;;;;;;;11.63;1.80;;;;;;;0.65;100.00;102346.03;10330415;28;20117;-81
2023/03/28 02:28:56;;;;;;;12.40;2.15;;;;;;;0.49;100.00;102342.13;10330254;28;20085;-81
2023/03/28 02:33:57;;;;;;;8.18;1.60;;;;;;;0.52;100.00;102347.25;10363194;28;20049;-81
2023/03/28 02:39:01;;;;;;;13.80;1.77;;;;;;;0.47;100.00;102367.69;10313944;28;20048;-81
2023/03/28 02:44:23;;;;;;;8.00;2.30;;;;;;;0.23;100.00;102347.44;10378130;28;20029;-81
2023/03/28 02:49:45;;;;;;;5.43;1.33;;;;;;;0.17;100.00;102345.31;10329097;28;20061;-83
2023/03/28 02:55:27;;;;;;;6.60;1.65;;;;;;;0.16;100.00;102352.56;10346403;28;20116;-83
2023/03/28 03:00:28;;;;;;;6.55;1.50;;;;;;;-0.09;100.00;102324.31;10345016;28;20284;-82
2023/03/28 03:05:29;;;;;;;7.57;1.50;;;;;;;0.05;100.00;102355.47;10360212;28;20026;-82
2023/03/28 03:10:29;;;;;;;12.07;2.72;;;;;;;-0.01;100.00;102356.91;10393533;28;20445;-82
2023/03/28 03:15:30;;;;;;;21.02;2.35;;;;;;;-0.05;100.00;102362.78;10359923;28;20053;-81
2023/03/28 03:20:32;;;;;;;25.63;3.75;;;;;;;-0.07;100.00;102362.91;10346408;28;20049;-82
2023/03/28 03:25:33;;;;;;;6.15;2.25;;;;;;;-0.03;100.00;102361.63;10353145;28;20085;-82
2023/03/28 03:30:34;;;;;;;11.85;1.73;;;;;;;-0.06;100.00;102359.22;10384632;28;20067;-82
2023/03/28 03:35:35;;;;;;;10.23;1.35;;;;;;;-0.16;100.00;102349.44;10385225;28;20155;-82
2023/03/28 03:40:35;;;;;;;13.68;2.53;;;;;;;-0.10;100.00;102370.50;10384770;28;20025;-83
2023/03/28 03:45:39;;;;;;;16.58;3.80;;;;;;;-0.19;100.00;102376.78;10352526;28;20038;-80
2023/03/28 03:50:39;;;;;;;12.93;1.65;;;;;;;-0.36;100.00;102365.72;10365863;28;20042;-83
2023/03/28 03:55:40;;;;;;;11.20;1.58;;;;;;;-0.36;100.00;102373.81;10360938;28;20109;-83
2023/03/28 04:00:43;;;;;;;7.47;1.80;;;;;;;-0.33;100.00;102392.50;10399731;28;20088;-83
2023/03/28 04:05:44;;;;;;;8.68;1.77;;;;;;;-0.46;100.00;102367.56;10367823;28;20033;-83
2023/03/28 04:10:45;;;;;;;5.40;1.70;;;;;;;-0.33;100.00;102388.91;10383969;28;20037;-83
2023/03/28 04:15:46;;;;;;;7.72;1.83;;;;;;;-0.42;100.00;102374.41;10368034;28;20041;-82
2023/03/28 04:20:54;;;;;;;12.95;2.50;;;;;;;-0.32;100.00;102391.47;10367088;28;20050;-79
2023/03/28 04:25:57;;;;;;;12.50;1.85;;;;;;;-0.32;100.00;102393.34;10367481;28;20120;-84
2023/03/28 04:30:58;;;;;;;12.85;2.03;;;;;;;-0.29;100.00;102391.22;10399773;28;20038;-84
2023/03/28 04:36:00;;;;;;;7.20;1.63;;;;;;;-0.55;100.00;102344.13;10365997;28;20405;-82
2023/03/28 04:41:03;;;;;;;5.57;1.60;;;;;;;-0.16;100.00;102401.72;10365541;28;20033;-84
2023/03/28 04:46:04;;;;;;;15.45;3.53;;;;;;;-0.19;100.00;102396.56;10379692;28;20037;-83
2023/03/28 04:51:07;;;;;;;10.50;1.80;;;;;;;-0.25;100.00;102403.44;10382953;28;20033;-84
2023/03/28 04:56:08;;;;;;;7.47;1.50;;;;;;;-0.31;100.00;102404.03;10364549;28;20033;-83
2023/03/28 05:01:27;;;;;;;11.90;2.67;;;;;;;-0.13;100.00;102433.91;10386701;28;20026;-84
2023/03/28 05:06:27;;;;;;;10.63;2.05;;;;;;;-0.14;100.00;102439.47;10348978;28;20029;-83
2023/03/28 05:11:29;;;;;;;8.27;1.42;;;;;;;-0.18;100.00;102438.06;10364140;28;20034;-82
2023/03/28 05:16:30;;;;;;;13.30;1.98;;;;;;;-0.18;100.00;102451.59;10397019;28;20163;-83
2023/03/28 05:21:30;;;;;;;14.15;1.98;;;;;;;-0.26;100.00;102446.91;10395458;28;20060;-85
2023/03/28 05:26:31;;;;;;;10.85;2.72;;;;;;;-0.32;100.00;102444.75;10380277;28;20040;-82
2023/03/28 05:31:31;;;;;;;9.15;2.35;;;;;;;-0.23;100.00;102460.13;10366585;28;20520;-84
2023/03/28 05:36:32;;;;;;;8.30;2.63;;;;;;;-0.31;100.00;102452.75;10371302;28;20037;-84
2023/03/28 05:41:32;;;;;;;21.15;2.63;;;;;;;-0.26;100.00;102460.44;10372264;28;20034;-80
2023/03/28 05:46:33;;;;;;;15.80;2.47;;;;;;;-0.59;100.00;102402.22;10325085;28;20050;-84
2023/03/28 05:51:34;;;;;;;12.02;1.65;;;;;;;-0.29;100.00;102453.47;10340091;28;20054;-85
2023/03/28 05:56:34;;;;;;;11.00;2.03;;;;;;;-0.25;100.00;102468.41;10384272;28;20042;-85
2023/03/28 06:01:35;;;;;;;14.02;2.58;;;;;;;-0.25;100.00;102463.00;10363130;28;20034;-85
2023/03/28 06:06:36;;;;;;;9.02;2.17;;;;;;;-0.27;100.00;102465.00;10379914;28;20044;-84
2023/03/28 06:11:37;;;;;;;12.27;2.35;;;;;;;-0.24;100.00;102471.97;10363173;28;20405;-84
2023/03/28 06:16:37;;;;;;;13.00;2.20;;;;;;;-0.15;100.00;102472.94;10401101;28;20049;-84
2023/03/28 06:21:38;;;;;;;10.85;2.05;;;;;;;-0.06;100.00;102462.09;10377871;28;20038;-85
2023/03/28 06:26:38;;;;;;;11.73;3.20;;;;;;;0.28;100.00;102468.88;10371015;28;20474;-85
2023/03/28 06:31:39;;;;;;;20.23;3.40;;;;;;;0.43;100.00;102458.41;10378618;28;20473;-81
2023/03/28 06:36:39;;;;;;;9.65;1.95;;;;;;;0.76;100.00;102473.22;10396023;28;20095;-83
2023/03/28 06:41:40;;;;;;;21.35;2.25;;;;;;;0.93;100.00;102460.72;10363265;28;20068;-83
2023/03/28 06:46:40;;;;;;;20.50;2.80;;;;;;;1.13;100.00;102458.75;10379771;28;20068;-84
2023/03/28 06:51:41;;;;;;;12.55;4.18;;;;;;;1.29;100.00;102453.50;10397984;28;20041;-85
2023/03/28 06:56:41;;;;;;;15.98;2.30;;;;;;;1.56;100.00;102470.72;10385470;28;20046;-85
2023/03/28 07:01:42;;;;;;;20.50;3.63;;;;;;;1.70;100.00;102459.31;10384406;28;20046;-85
2023/03/28 07:06:43;;;;;;;11.77;2.35;;;;;;;1.89;100.00;102460.97;10406856;28;20049;-84
2023/03/28 07:11:43;;;;;;;10.07;2.13;;;;;;;2.10;100.00;102484.22;10415864;28;20040;-84
2023/03/28 07:16:44;;;;;;;10.13;2.58;;;;;;;2.30;100.00;102474.00;10348065;28;20084;-83
2023/03/28 07:21:44;;;;;;;13.40;2.22;;;;;;;1.81;100.00;102325.13;10379480;28;20068;-75
2023/03/28 07:26:45;;;;;;;22.33;3.70;;;;;;;3.44;100.00;102474.44;10396239;28;20120;-82
2023/03/28 07:31:45;;;;;;;11.13;2.72;;;;;;;3.73;100.00;102469.53;10379502;28;20163;-81
2023/03/28 07:36:45;;;;;;;10.82;3.22;;;;;;;3.93;100.00;102489.13;10361562;28;20039;-81
2023/03/28 07:41:46;;;;;;;9.02;1.75;;;;;;;3.92;100.00;102471.06;10379997;28;20030;-80
2023/03/28 07:46:46;;;;;;;13.43;1.65;;;;;;;4.04;100.00;102491.50;10362054;28;20038;-80
2023/03/28 07:51:47;;;;;;;17.77;2.20;;;;;;;4.03;100.00;102478.88;10381141;28;20049;-81
2023/03/28 07:56:47;;;;;;;12.85;2.40;;;;;;;4.42;100.00;102489.91;10346348;28;20393;-81
2023/03/28 08:01:48;;;;;;;10.40;1.60;;;;;;;4.62;100.00;102497.69;10371020;28;20477;-81
2023/03/28 08:06:51;;;;;;;15.98;2.33;;;;;;;4.60;100.00;102486.94;10371762;28;20441;-70
2023/03/28 08:11:51;;;;;;;8.13;2.58;;;;;;;4.74;100.00;102504.47;10404082;28;20041;-80
2023/03/28 08:16:51;;;;;;;12.88;3.22;;;;;;;4.58;100.00;102491.72;10388594;28;20049;-72
2023/03/28 08:21:52;;;;;;;10.63;2.53;;;;;;;4.92;100.00;102503.38;10369928;28;20049;-81
2023/03/28 08:26:52;;;;;;;4.38;1.58;;;;;;;5.09;100.00;102498.72;10397489;28;20060;-80
2023/03/28 08:31:53;;;;;;;10.32;2.15;;;;;;;5.11;100.00;102493.94;10397423;28;20045;-82
2023/03/28 08:36:53;;;;;;;11.90;3.08;;;;;;;5.04;100.00;102478.25;10397274;28;20041;-81
2023/03/28 08:42:16;;;;;;;8.73;1.42;;;;;;;5.16;100.00;102469.66;10398294;28;20033;-80
2023/03/28 08:47:31;;;;;;;12.80;2.63;;;;;;;5.41;100.00;102482.13;10401128;28;20033;-82
2023/03/28 08:52:31;;;;;;;8.45;1.20;;;;;;;5.73;100.00;102471.16;10398176;28;20041;-83
2023/03/28 08:57:33;;;;;;;9.43;1.40;;;;;;;6.11;100.00;102465.72;10379638;28;20033;-82
2023/03/28 09:02:33;;;;;;;4.13;1.00;;;;;;;6.32;100.00;102449.44;10413062;28;20052;-82
2023/03/28 09:07:35;;;;;;;7.40;1.33;;;;;;;6.37;100.00;102446.16;10413244;28;20029;-81
2023/03/28 09:12:54;;;;;;;4.70;1.00;;;;;;;6.56;100.00;102450.22;10394888;28;20044;-81
2023/03/28 09:18:21;;;;;;;8.68;1.73;;;;;;;6.69;100.00;102444.06;10393612;28;20037;-82
2023/03/28 09:23:40;;;;;;;5.78;1.13;;;;;;;6.22;100.00;102435.19;10364897;28;20136;-82
2023/03/28 09:28:48;;;;;;;6.47;0.90;;;;;;;5.88;100.00;102425.59;10394635;28;20144;-81
2023/03/28 09:33:49;;;;;;;6.68;1.75;;;;;;;6.04;100.00;102441.03;10365541;28;20408;-82
2023/03/28 09:38:57;;;;;;;4.70;1.08;;;;;;;6.04;100.00;102424.63;10393729;28;20049;-82
2023/03/28 09:43:59;;;;;;;5.35;0.85;;;;;;;6.12;100.00;102430.00;10353804;28;20065;-80
2023/03/28 09:48:59;;;;;;;6.22;1.50;;;;;;;6.13;100.00;102407.06;10370711;28;20037;-80
2023/03/28 09:54:05;;;;;;;4.63;1.00;;;;;;;6.29;100.00;102410.69;10338846;28;20121;-81
2023/03/28 09:59:24;;;;;;;2.78;0.65;;;;;;;6.56;100.00;102409.16;10339510;28;20051;-79
2023/03/28 10:04:27;;;;;;;3.63;1.25;;;;;;;6.85;100.00;102417.31;10354372;28;20172;-80
2023/03/28 10:09:28;;;;;;;4.63;0.80;;;;;;;7.06;100.00;102402.81;10357452;28;20139;-79
2023/03/28 10:14:41;;;;;;;7.72;1.25;;;;;;;7.57;100.00;102392.81;10371930;28;20045;-79
2023/03/28 10:19:45;;;;;;;6.07;0.98;;;;;;;7.78;98.03;102373.59;10354286;28;20041;-80
2023/03/28 10:24:46;;;;;;;4.63;1.33;;;;;;;7.83;98.33;102376.59;10340029;28;20038;-82
2023/03/28 10:29:46;;;;;;;8.55;1.60;;;;;;;8.02;99.61;102385.13;10362829;28;20054;-80
2023/03/28 10:34:57;;;;;;;3.08;0.70;;;;;;;7.98;96.44;102378.34;10329471;28;20030;-80
2023/03/28 10:40:09;;;;;;;2.10;0.70;;;;;;;7.88;95.87;102376.81;10363614;28;20053;-80
2023/03/28 10:45:29;;;;;;;6.20;0.88;;;;;;;7.92;91.32;102362.69;10359528;28;20046;-80
2023/03/28 10:50:56;;;;;;;2.88;0.60;;;;;;;7.83;91.98;102371.09;10345745;28;20098;-79
2023/03/28 10:56:53;;;;;;;4.03;0.80;;;;;;;7.62;92.99;102373.88;10359690;28;20504;-79
2023/03/28 11:02:06;;;;;;;;;;;;;;;7.74;91.26;102377.75;10338931;28;20396;-79
2023/03/28 11:07:11;;;;;;;4.32;0.88;;;;;;;7.66;91.03;102354.06;10413516;28;19945;-79
2023/03/28 11:12:37;;;;;;;2.63;0.85;;;;;;;7.65;89.99;102346.06;10351808;28;20046;-78
2023/03/28 11:17:56;;;;;;;1.65;0.60;;;;;;;7.66;90.73;102359.56;10395456;28;20056;-79
2023/03/28 11:23:15;;;;;;;7.47;1.02;;;;;;;7.82;89.84;102341.13;10383783;28;20037;-79
2023/03/28 11:28:43;;;;;;;3.58;0.80;;;;;;;7.67;89.50;102357.69;10384485;28;20052;-79
2023/03/28 11:34:15;;;;;;;6.05;1.00;;;;;;;7.78;88.96;102329.72;10375445;28;20046;-79
2023/03/28 11:39:30;;;;;;;2.15;1.00;;;;;;;8.24;89.46;102312.69;10350131;28;20048;-80
2023/03/28 11:44:34;;;;;;;4.07;1.10;;;;;;;8.71;87.53;102301.94;10360381;28;20037;-79
2023/03/28 11:49:44;;;;;;;3.55;0.65;;;;;;;9.28;85.98;102283.19;10342899;28;20049;-79
2023/03/28 11:54:48;;;;;;;5.20;0.60;;;;;;;9.70;83.21;102270.06;10327582;28;20058;-79
2023/03/28 11:59:59;;;;;;;2.88;0.60;;;;;;;9.67;82.37;102271.34;10359500;28;20057;-79
2023/03/28 12:05:04;;;;;;;4.20;0.93;;;;;;;9.40;82.57;102259.50;10384757;28;20045;-80
2023/03/28 12:10:18;;;;;;;4.30;0.80;;;;;;;9.97;79.49;102257.09;10344551;28;20121;-79
2023/03/28 12:15:19;;;;;;;5.40;1.00;;;;;;;9.75;79.19;102242.75;10368845;28;20033;-78
2023/03/28 12:20:31;;;;;;;2.78;0.98;;;;;;;9.34;78.66;102235.63;10382897;28;20052;-81
2023/03/28 12:25:35;;;;;;;5.30;2.05;;;;;;;9.19;80.13;102244.09;10366855;28;20107;-81
2023/03/28 12:30:39;;;;;;;2.75;0.80;;;;;;;8.88;80.41;102256.53;10382069;28;20401;-81
2023/03/28 12:35:49;;;;;;;3.05;0.90;;;;;;;9.60;83.89;102245.75;10415099;28;20047;-81
2023/03/28 12:41:02;;;;;;;4.63;0.70;;;;;;;9.92;79.67;102231.28;10395933;28;20103;-80
2023/03/28 12:46:03;;;;;;;6.13;1.10;;;;;;;10.08;81.30;102226.13;10370067;28;20038;-80
2023/03/28 12:51:34;;;;;;;4.20;0.82;;;;;;;10.49;79.15;102210.28;10392450;28;20057;-82
2023/03/28 12:56:35;;;;;;;3.17;0.98;;;;;;;11.56;77.55;102198.41;10361162;28;20046;-81
2023/03/28 13:01:46;;;;;;;3.10;0.85;;;;;;;12.59;74.06;102157.97;10376701;28;20030;-82
2023/03/28 13:07:07;;;;;;;3.40;1.60;;;;;;;12.16;70.17;102176.47;10339769;28;20103;-81
2023/03/28 13:12:29;;;;;;;5.63;1.63;;;;;;;11.73;71.77;102182.06;10374591;28;20037;-81
2023/03/28 13:17:31;;;;;;;3.80;0.77;;;;;;;10.99;69.59;102155.25;10355661;28;20034;-81
2023/03/28 13:22:57;;;;;;;4.95;1.20;;;;;;;11.34;69.72;102165.72;10340599;28;20030;-81
2023/03/28 13:28:10;;;;;;;2.15;0.75;;;;;;;11.02;70.38;102160.31;10354974;28;20034;-81
2023/03/28 13:33:32;;;;;;;4.10;1.25;;;;;;;11.30;72.77;102161.72;10373251;28;20072;-82
2023/03/28 13:38:51;;;;;;;2.67;0.90;;;;;;;11.62;71.94;102143.16;10338469;28;22368;-79
2023/03/28 13:43:53;;;;;;;7.28;1.00;;;;;;;12.12;70.02;102120.03;10371762;28;20048;-81
2023/03/28 13:49:04;;;;;;;2.50;0.95;;;;;;;11.02;68.97;102113.47;10354872;28;20037;-80
2023/03/28 13:54:04;;;;;;;6.30;1.98;;;;;;;10.64;69.41;102122.69;10338958;28;20034;-80
2023/03/28 13:59:06;;;;;;;4.50;1.05;;;;;;;10.97;71.48;102113.28;10366056;28;20124;-80
2023/03/28 14:04:19;;;;;;;4.65;1.00;;;;;;;10.82;72.47;102121.06;10393989;28;20041;-80
2023/03/28 14:09:28;;;;;;;3.97;1.50;;;;;;;11.49;70.76;102099.16;10395016;28;20117;-80
2023/03/28 14:14:34;;;;;;;4.43;1.25;;;;;;;10.86;70.41;102103.88;10347457;28;20034;-79
2023/03/28 14:19:37;;;;;;;4.00;1.40;;;;;;;10.51;70.99;102084.25;10411392;28;20071;-79
2023/03/28 14:24:38;;;;;;;2.83;1.05;;;;;;;11.43;72.51;102084.41;10378979;28;20045;-78
2023/03/28 14:29:57;;;;;;;4.85;1.83;;;;;;;11.55;69.31;102062.38;10379062;28;20490;-79
2023/03/28 14:35:15;;;;;;;3.60;1.20;;;;;;;11.09;69.37;102061.03;10320770;28;20037;-78
2023/03/28 14:40:29;;;;;;;7.00;1.67;;;;;;;10.16;71.52;102062.69;10336844;28;20061;-79
2023/03/28 14:45:35;;;;;;;4.47;1.38;;;;;;;9.24;72.05;102062.09;10337593;28;20042;-77
2023/03/28 14:50:36;;;;;;;5.53;1.63;;;;;;;9.18;74.22;102062.97;10354716;28;20073;-77
2023/03/28 14:55:37;;;;;;;5.93;1.15;;;;;;;9.02;73.19;102087.09;10361808;28;20143;-78
2023/03/28 15:00:40;;;;;;;6.70;1.60;;;;;;;8.45;74.31;102050.19;10378204;28;20765;-78
2023/03/28 15:05:42;;;;;;;5.90;1.60;;;;;;;8.50;75.93;102035.84;10336016;28;20041;-77
2023/03/28 15:10:47;;;;;;;4.22;1.50;;;;;;;8.39;75.43;102034.53;10336282;28;20060;-80
2023/03/28 15:15:48;;;;;;;5.35;1.95;;;;;;;8.60;75.90;102036.22;10343770;28;20053;-77
2023/03/28 15:20:50;;;;;;;3.10;1.63;;;;;;;8.91;77.47;102032.81;10360977;28;20034;-78
2023/03/28 15:25:51;;;;;;;8.25;2.38;;;;;;;9.01;77.76;102011.25;10376817;28;20049;-77
2023/03/28 15:30:52;;;;;;;5.50;2.08;;;;;;;9.03;77.44;102025.63;10400042;28;20146;-77
2023/03/28 15:36:16;;;;;;;7.55;2.30;;;;;;;9.13;77.87;102016.06;10330389;28;20049;-78
2023/03/28 15:41:24;;;;;;;4.85;1.90;;;;;;;8.88;78.38;102006.63;10359396;28;20034;-79
2023/03/28 15:46:29;;;;;;;9.10;2.67;;;;;;;8.39;77.51;101999.72;10345071;28;20042;-80
2023/03/28 15:51:46;;;;;;;11.05;2.42;;;;;;;8.34;80.74;102001.41;10342935;28;20034;-80
2023/03/28 15:56:47;;;;;;;;;;;;;;;8.64;80.64;101999.06;10375609;28;20041;-79
2023/03/28 16:01:47;;;;;;;4.75;1.85;;;;;;;8.56;79.65;101985.56;10383568;28;19921;-77
2023/03/28 16:06:48;;;;;;;6.82;2.22;;;;;;;8.58;79.24;101970.59;10357894;28;20037;-77
2023/03/28 16:12:00;;;;;;;4.63;2.40;;;;;;;8.53;81.13;101970.38;10397495;28;20347;-76
2023/03/28 16:17:00;;;;;;;6.32;1.65;;;;;;;8.58;81.58;101967.84;10398853;28;20091;-77
2023/03/28 16:22:01;;;;;;;4.05;2.28;;;;;;;8.20;82.80;101951.19;10381119;28;20037;-77
2023/03/28 16:27:01;;;;;;;3.22;1.60;;;;;;;7.98;84.03;101969.72;10373378;28;20088;-80
2023/03/28 16:32:02;;;;;;;5.07;1.73;;;;;;;7.81;84.56;101955.59;10381349;28;20060;-80
2023/03/28 16:37:02;;;;;;;8.02;1.90;;;;;;;7.62;86.08;101952.63;10381204;28;20041;-79
2023/03/28 16:42:04;;;;;;;4.43;2.22;;;;;;;7.53;86.06;101948.41;10377527;28;20033;-77
2023/03/28 16:47:04;;;;;;;3.38;1.60;;;;;;;7.40;85.31;101949.22;10342214;28;20092;-78
2023/03/28 16:52:06;;;;;;;3.28;1.88;;;;;;;7.31;87.32;101944.13;10395181;28;20041;-78
2023/03/28 16:57:06;;;;;;;7.75;1.90;;;;;;;7.10;86.38;101936.91;10397172;28;20045;-78
2023/03/28 17:02:08;;;;;;;5.60;1.85;;;;;;;6.94;89.46;101924.41;10380210;28;20026;-78
2023/03/28 17:07:08;;;;;;;4.90;2.08;;;;;;;7.00;90.02;101932.63;10359116;28;20547;-77
2023/03/28 17:12:09;;;;;;;4.18;1.80;;;;;;;6.76;88.22;101919.47;10378139;28;20041;-77
2023/03/28 17:17:10;;;;;;;6.10;2.00;;;;;;;6.83;88.81;101942.25;10395933;28;20041;-78
2023/03/28 17:22:11;;;;;;;7.25;2.17;;;;;;;6.31;89.12;101891.69;10395422;28;20033;-78
2023/03/28 17:27:12;;;;;;;7.28;2.60;;;;;;;6.62;92.52;101952.25;10379333;28;20120;-77
2023/03/28 17:32:13;;;;;;;4.93;2.60;;;;;;;6.47;93.23;101954.28;10379107;28;20473;-78
2023/03/28 17:37:13;;;;;;;5.60;2.50;;;;;;;6.24;94.46;101930.78;10366149;28;20112;-77
2023/03/28 17:42:14;;;;;;;6.20;2.65;;;;;;;6.25;97.92;101940.66;10379504;28;20120;-78
2023/03/28 17:47:14;;;;;;;5.05;2.05;;;;;;;6.03;97.15;101911.66;10389198;28;20071;-78
2023/03/28 17:52:15;;;;;;;5.90;2.28;;;;;;;6.16;98.75;101930.94;10369837;28;20121;-78
2023/03/28 17:57:15;;;;;;;7.38;2.42;;;;;;;6.06;99.36;101930.44;10412554;28;20721;-78
2023/03/28 18:02:16;;;;;;;9.98;2.30;;;;;;;6.06;100.00;101930.44;10395244;28;20049;-79
2023/03/28 18:07:16;;;;;;;7.90;3.08;;;;;;;6.06;100.00;101936.72;10395128;28;20544;-80
2023/03/28 18:12:17;;;;;;;9.23;3.90;;;;;;;5.95;100.00;101958.28;10349836;28;20084;-78
2023/03/28 18:17:18;;;;;;;5.57;2.70;;;;;;;5.70;100.00;101947.72;10394170;28;20048;-78
2023/03/28 18:22:19;;;;;;;6.30;3.03;;;;;;;5.72;100.00;101931.97;10412227;28;20399;-79
2023/03/28 18:27:20;;;;;;;10.73;2.80;;;;;;;5.75;100.00;101917.94;10351568;28;20064;-79
2023/03/28 18:32:20;;;;;;;6.60;2.92;;;;;;;5.78;100.00;101909.34;10368063;28;20056;-79
2023/03/28 18:37:21;;;;;;;8.77;2.30;;;;;;;5.86;100.00;101901.00;10368983;28;20034;-77
2023/03/28 18:42:21;;;;;;;8.05;2.80;;;;;;;5.84;100.00;101889.41;10395687;28;20535;-73
2023/03/28 18:47:22;;;;;;;11.02;2.60;;;;;;;5.85;100.00;101885.66;10414006;28;20033;-79
2023/03/28 18:52:25;;;;;;;12.13;3.83;;;;;;;5.86;100.00;101876.41;10380006;28;20083;-78
2023/03/28 18:57:25;;;;;;;5.13;2.50;;;;;;;6.00;100.00;101899.25;10402760;28;20129;-79
2023/03/28 19:02:27;;;;;;;8.18;3.97;;;;;;;5.59;100.00;101853.50;10401130;28;20132;-78
2023/03/28 19:07:28;;;;;;;5.03;2.58;;;;;;;5.86;100.00;101909.19;10385665;28;20041;-78
2023/03/28 19:12:28;;;;;;;4.35;2.17;;;;;;;5.60;100.00;101901.63;10401925;28;20057;-78
2023/03/28 19:17:31;;;;;;;10.88;3.45;;;;;;;5.61;100.00;101911.50;10384006;28;20061;-78
2023/03/28 19:22:32;;;;;;;7.40;3.13;;;;;;;5.46;100.00;101897.91;10383627;28;20390;-77
2023/03/28 19:27:32;;;;;;;5.80;3.08;;;;;;;5.55;100.00;101904.09;10400897;28;20037;-78
2023/03/28 19:32:33;;;;;;;6.57;2.80;;;;;;;5.45;100.00;101898.94;10399906;28;20037;-79
2023/03/28 19:37:33;;;;;;;6.93;3.15;;;;;;;5.49;100.00;101895.84;10383590;28;20038;-78
2023/03/28 19:42:35;;;;;;;6.57;3.28;;;;;;;5.43;100.00;101892.00;10400100;28;20053;-78
2023/03/28 19:47:35;;;;;;;7.05;4.10;;;;;;;5.32;100.00;101906.19;10363167;28;20042;-77
2023/03/28 19:52:38;;;;;;;16.88;4.85;;;;;;;5.09;100.00;101889.97;10389422;28;20045;-76
2023/03/28 19:57:38;;;;;;;11.13;4.40;;;;;;;4.95;100.00;101895.28;10381192;28;20045;-78
2023/03/28 20:02:39;;;;;;;12.02;5.80;;;;;;;4.82;100.00;101886.94;10397041;28;20303;-77
2023/03/28 20:07:40;;;;;;;16.10;5.80;;;;;;;4.79;100.00;101884.59;10399312;28;20076;-79
2023/03/28 20:12:41;;;;;;;12.25;5.28;;;;;;;4.61;100.00;101882.25;10373202;28;20037;-78
2023/03/28 20:17:41;;;;;;;11.82;5.68;;;;;;;4.45;100.00;101866.97;10397838;28;20048;-78
2023/03/28 20:22:41;;;;;;;13.50;5.70;;;;;;;4.53;100.00;101879.66;10365197;28;20060;-79
2023/03/28 20:27:42;;;;;;;14.27;5.95;;;;;;;4.45;100.00;101873.25;10373147;28;20417;-78
2023/03/28 20:32:42;;;;;;;14.88;6.05;;;;;;;4.39;100.00;101863.09;10374217;28;20064;-78
2023/03/28 20:37:43;;;;;;;17.67;6.43;;;;;;;4.39;100.00;101867.72;10339210;28;20064;-79
2023/03/28 20:42:43;;;;;;;15.98;6.47;;;;;;;4.40;100.00;101859.34;10326246;28;20034;-77
2023/03/28 20:47:48;;;;;;;13.90;5.97;;;;;;;4.36;100.00;101862.63;10337428;28;20068;-73
2023/03/28 20:52:50;;;;;;;12.75;6.05;;;;;;;4.31;100.00;101862.38;10361921;28;20567;-78
2023/03/28 20:57:51;;;;;;;13.30;6.72;;;;;;;4.32;100.00;101844.94;10358282;28;20041;-78
2023/03/28 21:02:52;;;;;;;13.55;6.88;;;;;;;4.33;100.00;101842.03;10380303;28;20079;-77
2023/03/28 21:07:53;;;;;;;13.38;7.22;;;;;;;4.29;100.00;101831.72;10361307;28;20037;-76
2023/03/28 21:12:53;;;;;;;19.58;8.00;;;;;;;4.25;100.00;101815.72;10379237;28;20061;-76
2023/03/28 21:17:54;;;;;;;13.88;6.35;;;;;;;4.21;100.00;101819.03;10412172;28;20049;-77
2023/03/28 21:22:55;;;;;;;13.00;5.82;;;;;;;4.29;100.00;101815.34;10395005;28;20030;-77
2023/03/28 21:27:55;;;;;;;15.35;6.18;;;;;;;4.29;100.00;101809.91;10355227;28;20056;-76
2023/03/28 21:32:58;;;;;;;11.60;6.55;;;;;;;4.24;100.00;101791.41;10357104;28;20060;-75
2023/03/28 21:37:59;;;;;;;8.60;4.90;;;;;;;4.22;100.00;101788.84;10380181;28;20043;-75
2023/03/28 21:43:00;;;;;;;8.98;4.97;;;;;;;4.29;100.00;101782.66;10374402;28;20147;-75
2023/03/28 21:48:01;;;;;;;12.13;6.47;;;;;;;4.28;100.00;101764.59;10359490;28;20096;-75
2023/03/28 21:53:02;;;;;;;14.38;5.43;;;;;;;4.22;100.00;101752.59;10377825;28;20048;-76
2023/03/28 21:58:03;;;;;;;13.48;5.68;;;;;;;4.32;100.00;101755.00;10394770;28;20481;-76
2023/03/28 22:03:04;;;;;;;12.10;6.72;;;;;;;4.25;100.00;101749.47;10379003;28;20060;-75
2023/03/28 22:08:04;;;;;;;13.95;5.82;;;;;;;4.32;100.00;101757.72;10368910;28;20034;-76
2023/03/28 22:13:05;;;;;;;13.48;6.47;;;;;;;4.31;100.00;101761.50;10369299;28;20034;-76
2023/03/28 22:18:08;;;;;;;14.70;7.07;;;;;;;4.26;100.00;101748.44;10377298;28;20099;-75
2023/03/28 22:23:08;;;;;;;12.23;6.55;;;;;;;4.31;100.00;101762.34;10375642;28;20037;-75
2023/03/28 22:28:09;;;;;;;14.13;6.47;;;;;;;4.27;100.00;101750.13;10379816;28;20057;-76
2023/03/28 22:33:09;;;;;;;14.63;6.85;;;;;;;4.29;100.00;101750.78;10386090;28;20037;-74
2023/03/28 22:38:11;;;;;;;14.57;7.68;;;;;;;4.25;100.00;101755.75;10366883;28;20049;-75
2023/03/28 22:43:11;;;;;;;13.88;6.60;;;;;;;4.20;100.00;101730.13;10383173;28;20038;-75
2023/03/28 22:48:14;;;;;;;16.60;6.25;;;;;;;4.24;100.00;101735.00;10400843;28;20042;-75
2023/03/28 22:53:15;;;;;;;14.38;7.30;;;;;;;4.23;100.00;101732.47;10373210;28;20042;-75
2023/03/28 22:58:15;;;;;;;16.75;7.45;;;;;;;4.27;100.00;101727.47;10401006;28;20064;-75
2023/03/28 23:03:16;;;;;;;16.20;7.55;;;;;;;4.19;100.00;101709.34;10401533;28;20084;-75
2023/03/28 23:08:17;;;;;;;12.43;5.93;;;;;;;4.17;100.00;101712.25;10359504;28;20042;-75
2023/03/28 23:13:17;;;;;;;11.38;4.95;;;;;;;4.22;100.00;101707.09;10383782;28;20056;-76